sensor_id;sensor_type;location;lat;lon;timestamp;P1;durP1;ratioP1;P2;durP2;ratioP2
54241;SDS011;40156;51.080;17.082;2022-11-11T00:04:46;37.78;;;16.05;;
54241;SDS011;40156;51.080;17.082;2022-11-11T00:07:13;31.85;;;15.20;;
54241;SDS011;40156;51.080;17.082;2022-11-11T00:09:41;44.22;;;20.45;;
54241;SDS011;40156;51.080;17.082;2022-11-11T00:12:08;83.20;;;35.83;;
54241;SDS011;40156;51.080;17.082;2022-11-11T00:14:36;41.30;;;19.17;;
54241;SDS011;40156;51.080;17.082;2022-11-11T00:17:03;33.47;;;15.77;;
54241;SDS011;40156;51.080;17.082;2022-11-11T00:19:30;37.00;;;15.32;;
54241;SDS011;40156;51.080;17.082;2022-11-11T00:21:58;32.30;;;14.80;;
54241;SDS011;40156;51.080;17.082;2022-11-11T00:24:27;58.08;;;25.70;;
54241;SDS011;40156;51.080;17.082;2022-11-11T00:26:55;41.75;;;18.70;;
54241;SDS011;40156;51.080;17.082;2022-11-11T00:29:22;35.08;;;16.08;;
54241;SDS011;40156;51.080;17.082;2022-11-11T00:31:50;30.98;;;14.90;;
54241;SDS011;40156;51.080;17.082;2022-11-11T00:34:17;29.02;;;12.75;;
54241;SDS011;40156;51.080;17.082;2022-11-11T00:36:45;26.50;;;13.57;;
54241;SDS011;40156;51.080;17.082;2022-11-11T00:39:12;28.85;;;13.13;;
54241;SDS011;40156;51.080;17.082;2022-11-11T00:41:40;30.23;;;14.10;;
54241;SDS011;40156;51.080;17.082;2022-11-11T00:44:07;26.50;;;12.32;;
54241;SDS011;40156;51.080;17.082;2022-11-11T00:46:35;34.63;;;13.50;;
54241;SDS011;40156;51.080;17.082;2022-11-11T00:49:02;32.65;;;14.43;;
54241;SDS011;40156;51.080;17.082;2022-11-11T00:51:30;29.40;;;12.85;;
54241;SDS011;40156;51.080;17.082;2022-11-11T00:53:57;24.15;;;12.90;;
54241;SDS011;40156;51.080;17.082;2022-11-11T00:56:25;26.98;;;12.55;;
54241;SDS011;40156;51.080;17.082;2022-11-11T00:58:53;25.85;;;12.60;;
54241;SDS011;40156;51.080;17.082;2022-11-11T01:01:20;27.65;;;12.88;;
54241;SDS011;40156;51.080;17.082;2022-11-11T01:03:48;26.55;;;12.50;;
54241;SDS011;40156;51.080;17.082;2022-11-11T01:06:15;26.85;;;13.85;;
54241;SDS011;40156;51.080;17.082;2022-11-11T01:08:43;24.33;;;11.57;;
54241;SDS011;40156;51.080;17.082;2022-11-11T01:11:11;33.10;;;12.35;;
54241;SDS011;40156;51.080;17.082;2022-11-11T01:13:38;21.35;;;10.70;;
54241;SDS011;40156;51.080;17.082;2022-11-11T01:16:07;26.23;;;11.27;;
54241;SDS011;40156;51.080;17.082;2022-11-11T01:21:57;24.07;;;11.77;;
54241;SDS011;40156;51.080;17.082;2022-11-11T01:24:25;26.75;;;12.18;;
54241;SDS011;40156;51.080;17.082;2022-11-11T01:26:52;28.58;;;12.60;;
54241;SDS011;40156;51.080;17.082;2022-11-11T01:29:20;23.42;;;11.50;;
54241;SDS011;40156;51.080;17.082;2022-11-11T01:31:47;27.92;;;12.48;;
54241;SDS011;40156;51.080;17.082;2022-11-11T01:34:15;25.08;;;12.75;;
54241;SDS011;40156;51.080;17.082;2022-11-11T01:40:26;27.20;;;11.32;;
54241;SDS011;40156;51.080;17.082;2022-11-11T01:50:52;26.30;;;12.73;;
54241;SDS011;40156;51.080;17.082;2022-11-11T01:53:31;31.08;;;13.65;;
54241;SDS011;40156;51.080;17.082;2022-11-11T01:55:58;28.60;;;13.52;;
54241;SDS011;40156;51.080;17.082;2022-11-11T01:58:27;26.63;;;12.85;;
54241;SDS011;40156;51.080;17.082;2022-11-11T02:00:56;26.45;;;12.10;;
54241;SDS011;40156;51.080;17.082;2022-11-11T02:03:24;24.95;;;11.85;;
54241;SDS011;40156;51.080;17.082;2022-11-11T02:05:53;28.15;;;12.73;;
54241;SDS011;40156;51.080;17.082;2022-11-11T02:08:25;26.65;;;12.18;;
54241;SDS011;40156;51.080;17.082;2022-11-11T02:10:54;26.90;;;11.25;;
54241;SDS011;40156;51.080;17.082;2022-11-11T02:13:21;21.77;;;11.45;;
54241;SDS011;40156;51.080;17.082;2022-11-11T02:15:49;25.23;;;11.25;;
54241;SDS011;40156;51.080;17.082;2022-11-11T02:18:17;27.13;;;11.85;;
54241;SDS011;40156;51.080;17.082;2022-11-11T02:20:44;23.77;;;11.18;;
54241;SDS011;40156;51.080;17.082;2022-11-11T02:23:21;28.52;;;11.93;;
54241;SDS011;40156;51.080;17.082;2022-11-11T02:25:50;30.10;;;11.82;;
54241;SDS011;40156;51.080;17.082;2022-11-11T02:28:19;30.38;;;12.35;;
54241;SDS011;40156;51.080;17.082;2022-11-11T02:30:48;26.52;;;12.73;;
54241;SDS011;40156;51.080;17.082;2022-11-11T02:33:15;26.85;;;11.60;;
54241;SDS011;40156;51.080;17.082;2022-11-11T02:35:44;28.40;;;11.63;;
54241;SDS011;40156;51.080;17.082;2022-11-11T02:38:12;22.30;;;11.10;;
54241;SDS011;40156;51.080;17.082;2022-11-11T02:40:41;27.95;;;12.43;;
54241;SDS011;40156;51.080;17.082;2022-11-11T02:43:08;23.13;;;10.70;;
54241;SDS011;40156;51.080;17.082;2022-11-11T02:45:36;26.35;;;11.18;;
54241;SDS011;40156;51.080;17.082;2022-11-11T02:48:03;24.38;;;12.85;;
54241;SDS011;40156;51.080;17.082;2022-11-11T02:50:31;25.90;;;11.75;;
54241;SDS011;40156;51.080;17.082;2022-11-11T02:52:58;25.13;;;11.48;;
54241;SDS011;40156;51.080;17.082;2022-11-11T02:55:26;25.17;;;10.75;;
54241;SDS011;40156;51.080;17.082;2022-11-11T02:57:54;21.83;;;10.93;;
54241;SDS011;40156;51.080;17.082;2022-11-11T03:00:21;24.30;;;12.02;;
54241;SDS011;40156;51.080;17.082;2022-11-11T03:02:48;24.58;;;11.30;;
54241;SDS011;40156;51.080;17.082;2022-11-11T03:05:16;23.73;;;10.88;;
54241;SDS011;40156;51.080;17.082;2022-11-11T03:07:43;31.40;;;12.63;;
54241;SDS011;40156;51.080;17.082;2022-11-11T03:10:11;25.77;;;12.07;;
54241;SDS011;40156;51.080;17.082;2022-11-11T03:15:32;25.05;;;11.52;;
54241;SDS011;40156;51.080;17.082;2022-11-11T03:17:59;23.35;;;10.65;;
54241;SDS011;40156;51.080;17.082;2022-11-11T03:20:27;24.63;;;11.45;;
54241;SDS011;40156;51.080;17.082;2022-11-11T03:22:58;25.75;;;12.25;;
54241;SDS011;40156;51.080;17.082;2022-11-11T03:25:26;21.90;;;10.50;;
54241;SDS011;40156;51.080;17.082;2022-11-11T03:27:53;25.65;;;12.00;;
54241;SDS011;40156;51.080;17.082;2022-11-11T03:30:21;27.02;;;12.02;;
54241;SDS011;40156;51.080;17.082;2022-11-11T03:32:48;28.98;;;11.52;;
54241;SDS011;40156;51.080;17.082;2022-11-11T03:35:16;28.00;;;10.98;;
54241;SDS011;40156;51.080;17.082;2022-11-11T03:37:43;24.75;;;11.23;;
54241;SDS011;40156;51.080;17.082;2022-11-11T03:40:10;25.77;;;10.93;;
54241;SDS011;40156;51.080;17.082;2022-11-11T03:46:11;20.70;;;10.53;;
54241;SDS011;40156;51.080;17.082;2022-11-11T03:48:38;23.58;;;10.35;;
54241;SDS011;40156;51.080;17.082;2022-11-11T03:51:06;22.42;;;10.82;;
54241;SDS011;40156;51.080;17.082;2022-11-11T03:53:33;24.10;;;10.15;;
54241;SDS011;40156;51.080;17.082;2022-11-11T03:56:01;20.70;;;10.02;;
54241;SDS011;40156;51.080;17.082;2022-11-11T03:58:28;23.77;;;9.95;;
54241;SDS011;40156;51.080;17.082;2022-11-11T04:00:55;27.67;;;11.88;;
54241;SDS011;40156;51.080;17.082;2022-11-11T04:03:23;26.08;;;11.65;;
54241;SDS011;40156;51.080;17.082;2022-11-11T04:05:51;26.75;;;11.90;;
54241;SDS011;40156;51.080;17.082;2022-11-11T04:08:19;27.30;;;12.10;;
54241;SDS011;40156;51.080;17.082;2022-11-11T04:10:47;27.30;;;11.48;;
54241;SDS011;40156;51.080;17.082;2022-11-11T04:13:14;23.30;;;10.70;;
54241;SDS011;40156;51.080;17.082;2022-11-11T04:15:42;18.55;;;9.75;;
54241;SDS011;40156;51.080;17.082;2022-11-11T04:18:09;26.65;;;10.35;;
54241;SDS011;40156;51.080;17.082;2022-11-11T04:20:36;22.83;;;10.38;;
54241;SDS011;40156;51.080;17.082;2022-11-11T04:23:04;25.08;;;10.48;;
54241;SDS011;40156;51.080;17.082;2022-11-11T04:25:32;24.02;;;11.15;;
54241;SDS011;40156;51.080;17.082;2022-11-11T04:28:06;22.15;;;10.77;;
54241;SDS011;40156;51.080;17.082;2022-11-11T04:30:34;21.80;;;10.68;;
54241;SDS011;40156;51.080;17.082;2022-11-11T04:33:01;23.92;;;10.75;;
54241;SDS011;40156;51.080;17.082;2022-11-11T04:35:28;25.52;;;10.60;;
54241;SDS011;40156;51.080;17.082;2022-11-11T04:37:56;21.73;;;9.93;;
54241;SDS011;40156;51.080;17.082;2022-11-11T04:40:23;24.08;;;11.20;;
54241;SDS011;40156;51.080;17.082;2022-11-11T04:42:53;25.05;;;11.10;;
54241;SDS011;40156;51.080;17.082;2022-11-11T04:45:21;22.65;;;10.40;;
54241;SDS011;40156;51.080;17.082;2022-11-11T04:47:58;24.30;;;10.55;;
54241;SDS011;40156;51.080;17.082;2022-11-11T04:50:27;25.85;;;10.50;;
54241;SDS011;40156;51.080;17.082;2022-11-11T04:52:55;22.80;;;10.07;;
54241;SDS011;40156;51.080;17.082;2022-11-11T04:55:23;19.88;;;9.90;;
54241;SDS011;40156;51.080;17.082;2022-11-11T04:57:51;20.20;;;9.48;;
54241;SDS011;40156;51.080;17.082;2022-11-11T05:00:18;25.08;;;10.48;;
54241;SDS011;40156;51.080;17.082;2022-11-11T05:05:25;18.75;;;9.52;;
54241;SDS011;40156;51.080;17.082;2022-11-11T05:07:52;21.70;;;10.13;;
54241;SDS011;40156;51.080;17.082;2022-11-11T05:10:19;21.85;;;10.27;;
54241;SDS011;40156;51.080;17.082;2022-11-11T05:12:47;23.75;;;10.40;;
54241;SDS011;40156;51.080;17.082;2022-11-11T05:15:14;20.17;;;9.48;;
54241;SDS011;40156;51.080;17.082;2022-11-11T05:17:42;19.60;;;9.52;;
54241;SDS011;40156;51.080;17.082;2022-11-11T05:20:09;21.13;;;9.77;;
54241;SDS011;40156;51.080;17.082;2022-11-11T05:22:40;25.10;;;10.23;;
54241;SDS011;40156;51.080;17.082;2022-11-11T05:25:09;21.80;;;10.20;;
54241;SDS011;40156;51.080;17.082;2022-11-11T05:27:37;24.52;;;10.02;;
54241;SDS011;40156;51.080;17.082;2022-11-11T05:30:05;19.85;;;9.73;;
54241;SDS011;40156;51.080;17.082;2022-11-11T05:35:56;22.63;;;10.35;;
54241;SDS011;40156;51.080;17.082;2022-11-11T05:38:23;22.67;;;10.18;;
54241;SDS011;40156;51.080;17.082;2022-11-11T05:40:50;20.85;;;10.07;;
54241;SDS011;40156;51.080;17.082;2022-11-11T05:43:18;23.45;;;9.70;;
54241;SDS011;40156;51.080;17.082;2022-11-11T05:45:45;18.88;;;9.43;;
54241;SDS011;40156;51.080;17.082;2022-11-11T05:48:13;30.88;;;10.88;;
54241;SDS011;40156;51.080;17.082;2022-11-11T05:50:40;22.33;;;9.82;;
54241;SDS011;40156;51.080;17.082;2022-11-11T05:53:07;20.73;;;9.25;;
54241;SDS011;40156;51.080;17.082;2022-11-11T05:55:35;23.58;;;10.05;;
54241;SDS011;40156;51.080;17.082;2022-11-11T05:58:02;20.83;;;9.63;;
54241;SDS011;40156;51.080;17.082;2022-11-11T06:00:30;23.17;;;10.25;;
54241;SDS011;40156;51.080;17.082;2022-11-11T06:03:00;19.98;;;8.93;;
54241;SDS011;40156;51.080;17.082;2022-11-11T06:05:28;23.35;;;9.85;;
54241;SDS011;40156;51.080;17.082;2022-11-11T06:07:55;25.15;;;10.57;;
54241;SDS011;40156;51.080;17.082;2022-11-11T06:10:23;22.17;;;10.60;;
54241;SDS011;40156;51.080;17.082;2022-11-11T06:12:50;22.33;;;9.25;;
54241;SDS011;40156;51.080;17.082;2022-11-11T06:15:18;25.67;;;9.93;;
54241;SDS011;40156;51.080;17.082;2022-11-11T06:17:45;21.73;;;9.77;;
54241;SDS011;40156;51.080;17.082;2022-11-11T06:20:13;19.27;;;9.15;;
54241;SDS011;40156;51.080;17.082;2022-11-11T06:22:40;23.73;;;9.38;;
54241;SDS011;40156;51.080;17.082;2022-11-11T06:25:08;20.35;;;9.60;;
54241;SDS011;40156;51.080;17.082;2022-11-11T06:27:35;20.05;;;10.20;;
54241;SDS011;40156;51.080;17.082;2022-11-11T06:30:03;22.88;;;9.27;;
54241;SDS011;40156;51.080;17.082;2022-11-11T06:32:50;23.00;;;10.25;;
54241;SDS011;40156;51.080;17.082;2022-11-11T06:35:17;20.00;;;9.52;;
54241;SDS011;40156;51.080;17.082;2022-11-11T06:37:45;21.60;;;9.38;;
54241;SDS011;40156;51.080;17.082;2022-11-11T06:40:13;24.95;;;10.10;;
54241;SDS011;40156;51.080;17.082;2022-11-11T06:42:48;23.90;;;9.57;;
54241;SDS011;40156;51.080;17.082;2022-11-11T06:45:17;18.73;;;9.93;;
54241;SDS011;40156;51.080;17.082;2022-11-11T06:47:44;19.73;;;9.80;;
54241;SDS011;40156;51.080;17.082;2022-11-11T06:50:12;21.10;;;10.15;;
54241;SDS011;40156;51.080;17.082;2022-11-11T06:56:11;22.70;;;10.13;;
54241;SDS011;40156;51.080;17.082;2022-11-11T06:58:39;19.25;;;9.45;;
54241;SDS011;40156;51.080;17.082;2022-11-11T07:03:50;21.40;;;9.45;;
54241;SDS011;40156;51.080;17.082;2022-11-11T07:06:17;26.20;;;9.38;;
54241;SDS011;40156;51.080;17.082;2022-11-11T07:08:45;20.45;;;9.18;;
54241;SDS011;40156;51.080;17.082;2022-11-11T07:11:12;19.42;;;9.23;;
54241;SDS011;40156;51.080;17.082;2022-11-11T07:13:45;21.48;;;9.02;;
54241;SDS011;40156;51.080;17.082;2022-11-11T07:16:12;23.23;;;9.27;;
54241;SDS011;40156;51.080;17.082;2022-11-11T07:18:40;19.35;;;8.90;;
54241;SDS011;40156;51.080;17.082;2022-11-11T07:21:07;19.13;;;9.43;;
54241;SDS011;40156;51.080;17.082;2022-11-11T07:27:07;19.25;;;10.40;;
54241;SDS011;40156;51.080;17.082;2022-11-11T07:29:34;19.52;;;9.88;;
54241;SDS011;40156;51.080;17.082;2022-11-11T07:32:02;17.73;;;9.52;;
54241;SDS011;40156;51.080;17.082;2022-11-11T07:34:29;20.85;;;9.25;;
54241;SDS011;40156;51.080;17.082;2022-11-11T07:36:57;18.73;;;9.48;;
54241;SDS011;40156;51.080;17.082;2022-11-11T07:39:24;18.15;;;8.65;;
54241;SDS011;40156;51.080;17.082;2022-11-11T07:41:52;21.92;;;9.20;;
54241;SDS011;40156;51.080;17.082;2022-11-11T07:44:19;19.40;;;9.05;;
54241;SDS011;40156;51.080;17.082;2022-11-11T07:46:46;19.33;;;9.10;;
54241;SDS011;40156;51.080;17.082;2022-11-11T07:49:14;18.92;;;8.60;;
54241;SDS011;40156;51.080;17.082;2022-11-11T07:51:41;18.70;;;8.73;;
54241;SDS011;40156;51.080;17.082;2022-11-11T07:54:09;17.60;;;8.07;;
54241;SDS011;40156;51.080;17.082;2022-11-11T07:56:37;18.63;;;7.88;;
54241;SDS011;40156;51.080;17.082;2022-11-11T07:59:04;19.02;;;8.60;;
54241;SDS011;40156;51.080;17.082;2022-11-11T08:01:31;19.27;;;7.75;;
54241;SDS011;40156;51.080;17.082;2022-11-11T08:03:59;20.80;;;8.27;;
54241;SDS011;40156;51.080;17.082;2022-11-11T08:06:26;17.77;;;7.82;;
54241;SDS011;40156;51.080;17.082;2022-11-11T08:08:54;16.38;;;7.60;;
54241;SDS011;40156;51.080;17.082;2022-11-11T08:11:29;14.25;;;7.25;;
54241;SDS011;40156;51.080;17.082;2022-11-11T08:13:56;14.98;;;7.00;;
54241;SDS011;40156;51.080;17.082;2022-11-11T08:16:24;14.00;;;7.13;;
54241;SDS011;40156;51.080;17.082;2022-11-11T08:18:51;18.75;;;7.70;;
54241;SDS011;40156;51.080;17.082;2022-11-11T08:21:19;13.15;;;6.88;;
54241;SDS011;40156;51.080;17.082;2022-11-11T08:23:46;13.80;;;7.03;;
54241;SDS011;40156;51.080;17.082;2022-11-11T08:26:34;15.48;;;7.15;;
54241;SDS011;40156;51.080;17.082;2022-11-11T08:29:01;20.67;;;7.68;;
54241;SDS011;40156;51.080;17.082;2022-11-11T08:31:29;15.05;;;7.88;;
54241;SDS011;40156;51.080;17.082;2022-11-11T08:33:56;14.95;;;6.68;;
54241;SDS011;40156;51.080;17.082;2022-11-11T08:36:23;14.07;;;6.82;;
54241;SDS011;40156;51.080;17.082;2022-11-11T08:38:51;14.05;;;7.22;;
54241;SDS011;40156;51.080;17.082;2022-11-11T08:41:19;13.98;;;6.97;;
54241;SDS011;40156;51.080;17.082;2022-11-11T08:47:28;14.90;;;6.60;;
54241;SDS011;40156;51.080;17.082;2022-11-11T08:49:56;15.35;;;6.18;;
54241;SDS011;40156;51.080;17.082;2022-11-11T08:52:23;10.82;;;6.32;;
54241;SDS011;40156;51.080;17.082;2022-11-11T08:54:51;14.32;;;6.50;;
54241;SDS011;40156;51.080;17.082;2022-11-11T08:57:21;11.60;;;6.28;;
54241;SDS011;40156;51.080;17.082;2022-11-11T08:59:49;12.93;;;6.80;;
54241;SDS011;40156;51.080;17.082;2022-11-11T09:02:16;13.10;;;6.90;;
54241;SDS011;40156;51.080;17.082;2022-11-11T09:04:44;13.45;;;6.05;;
54241;SDS011;40156;51.080;17.082;2022-11-11T09:07:16;12.60;;;6.00;;
54241;SDS011;40156;51.080;17.082;2022-11-11T09:09:44;9.70;;;5.72;;
54241;SDS011;40156;51.080;17.082;2022-11-11T09:12:11;13.38;;;6.53;;
54241;SDS011;40156;51.080;17.082;2022-11-11T09:14:39;8.88;;;5.35;;
54241;SDS011;40156;51.080;17.082;2022-11-11T09:17:06;9.90;;;5.35;;
54241;SDS011;40156;51.080;17.082;2022-11-11T09:19:33;11.48;;;5.55;;
54241;SDS011;40156;51.080;17.082;2022-11-11T09:22:01;13.82;;;5.82;;
54241;SDS011;40156;51.080;17.082;2022-11-11T09:24:28;11.52;;;6.32;;
54241;SDS011;40156;51.080;17.082;2022-11-11T09:26:56;11.05;;;6.25;;
54241;SDS011;40156;51.080;17.082;2022-11-11T09:29:23;13.30;;;5.50;;
54241;SDS011;40156;51.080;17.082;2022-11-11T09:31:51;11.38;;;5.68;;
54241;SDS011;40156;51.080;17.082;2022-11-11T09:34:18;10.13;;;5.50;;
54241;SDS011;40156;51.080;17.082;2022-11-11T09:36:46;13.55;;;5.88;;
54241;SDS011;40156;51.080;17.082;2022-11-11T09:39:13;12.23;;;5.50;;
54241;SDS011;40156;51.080;17.082;2022-11-11T09:50:33;9.90;;;4.97;;
54241;SDS011;40156;51.080;17.082;2022-11-11T09:53:13;11.63;;;4.85;;
54241;SDS011;40156;51.080;17.082;2022-11-11T09:55:44;13.27;;;5.22;;
54241;SDS011;40156;51.080;17.082;2022-11-11T09:58:21;13.40;;;5.47;;
54241;SDS011;40156;51.080;17.082;2022-11-11T10:03:53;10.93;;;5.47;;
54241;SDS011;40156;51.080;17.082;2022-11-11T10:06:32;10.35;;;5.47;;
54241;SDS011;40156;51.080;17.082;2022-11-11T10:09:06;13.15;;;5.30;;
54241;SDS011;40156;51.080;17.082;2022-11-11T10:11:51;8.32;;;5.13;;
54241;SDS011;40156;51.080;17.082;2022-11-11T10:15:02;9.63;;;4.68;;
54241;SDS011;40156;51.080;17.082;2022-11-11T10:20:31;9.20;;;4.70;;
54241;SDS011;40156;51.080;17.082;2022-11-11T10:25:38;9.13;;;4.88;;
54241;SDS011;40156;51.080;17.082;2022-11-11T10:28:16;9.65;;;4.43;;
54241;SDS011;40156;51.080;17.082;2022-11-11T10:30:47;10.40;;;4.65;;
54241;SDS011;40156;51.080;17.082;2022-11-11T10:33:18;7.82;;;4.05;;
54241;SDS011;40156;51.080;17.082;2022-11-11T10:35:54;8.68;;;4.25;;
54241;SDS011;40156;51.080;17.082;2022-11-11T10:38:34;9.38;;;4.70;;
54241;SDS011;40156;51.080;17.082;2022-11-11T10:41:29;10.95;;;4.20;;
54241;SDS011;40156;51.080;17.082;2022-11-11T10:44:11;9.93;;;4.80;;
54241;SDS011;40156;51.080;17.082;2022-11-11T10:46:57;7.75;;;4.55;;
54241;SDS011;40156;51.080;17.082;2022-11-11T10:49:29;9.43;;;4.35;;
54241;SDS011;40156;51.080;17.082;2022-11-11T10:52:16;9.02;;;4.07;;
54241;SDS011;40156;51.080;17.082;2022-11-11T10:54:50;9.30;;;3.95;;
54241;SDS011;40156;51.080;17.082;2022-11-11T10:57:32;8.95;;;4.40;;
54241;SDS011;40156;51.080;17.082;2022-11-11T11:00:05;8.65;;;3.85;;
54241;SDS011;40156;51.080;17.082;2022-11-11T11:02:47;9.10;;;4.63;;
54241;SDS011;40156;51.080;17.082;2022-11-11T11:05:46;9.15;;;4.05;;
54241;SDS011;40156;51.080;17.082;2022-11-11T11:08:20;9.52;;;4.43;;
54241;SDS011;40156;51.080;17.082;2022-11-11T11:11:14;9.13;;;4.18;;
54241;SDS011;40156;51.080;17.082;2022-11-11T11:16:37;9.45;;;3.55;;
54241;SDS011;40156;51.080;17.082;2022-11-11T11:19:18;7.18;;;3.58;;
54241;SDS011;40156;51.080;17.082;2022-11-11T11:22:03;7.43;;;3.90;;
54241;SDS011;40156;51.080;17.082;2022-11-11T11:24:35;6.40;;;3.75;;
54241;SDS011;40156;51.080;17.082;2022-11-11T11:27:09;8.38;;;4.10;;
54241;SDS011;40156;51.080;17.082;2022-11-11T11:29:38;7.13;;;3.90;;
54241;SDS011;40156;51.080;17.082;2022-11-11T11:32:15;5.57;;;3.33;;
54241;SDS011;40156;51.080;17.082;2022-11-11T11:35:06;7.53;;;3.90;;
54241;SDS011;40156;51.080;17.082;2022-11-11T11:37:56;9.10;;;3.80;;
54241;SDS011;40156;51.080;17.082;2022-11-11T11:40:23;8.38;;;3.70;;
54241;SDS011;40156;51.080;17.082;2022-11-11T11:42:51;7.63;;;3.33;;
54241;SDS011;40156;51.080;17.082;2022-11-11T11:45:21;7.60;;;4.00;;
54241;SDS011;40156;51.080;17.082;2022-11-11T11:51:12;6.72;;;3.90;;
54241;SDS011;40156;51.080;17.082;2022-11-11T11:54:12;7.50;;;3.67;;
54241;SDS011;40156;51.080;17.082;2022-11-11T11:56:47;5.63;;;3.03;;
54241;SDS011;40156;51.080;17.082;2022-11-11T12:08:11;11.57;;;4.80;;
54241;SDS011;40156;51.080;17.082;2022-11-11T12:16:24;17.15;;;6.00;;
54241;SDS011;40156;51.080;17.082;2022-11-11T12:21:34;9.23;;;4.03;;
54241;SDS011;40156;51.080;17.082;2022-11-11T12:30:13;10.10;;;4.60;;
54241;SDS011;40156;51.080;17.082;2022-11-11T12:48:53;7.45;;;3.80;;
54241;SDS011;40156;51.080;17.082;2022-11-11T12:57:54;10.32;;;4.60;;
54241;SDS011;40156;51.080;17.082;2022-11-11T13:03:59;10.25;;;4.57;;
54241;SDS011;40156;51.080;17.082;2022-11-11T13:11:39;11.77;;;4.95;;
54241;SDS011;40156;51.080;17.082;2022-11-11T13:16:39;12.32;;;5.25;;
54241;SDS011;40156;51.080;17.082;2022-11-11T13:25:05;14.15;;;6.22;;
54241;SDS011;40156;51.080;17.082;2022-11-11T13:27:41;11.18;;;5.03;;
54241;SDS011;40156;51.080;17.082;2022-11-11T13:35:19;17.67;;;6.63;;
54241;SDS011;40156;51.080;17.082;2022-11-11T13:37:47;11.73;;;5.72;;
54241;SDS011;40156;51.080;17.082;2022-11-11T13:43:01;11.75;;;5.80;;
54241;SDS011;40156;51.080;17.082;2022-11-11T13:45:33;11.10;;;5.63;;
54241;SDS011;40156;51.080;17.082;2022-11-11T13:48:01;11.70;;;6.53;;
54241;SDS011;40156;51.080;17.082;2022-11-11T13:50:35;11.18;;;6.03;;
54241;SDS011;40156;51.080;17.082;2022-11-11T13:56:22;11.10;;;5.82;;
54241;SDS011;40156;51.080;17.082;2022-11-11T14:02:28;11.80;;;5.47;;
54241;SDS011;40156;51.080;17.082;2022-11-11T14:12:49;14.52;;;6.88;;
54241;SDS011;40156;51.080;17.082;2022-11-11T14:17:44;14.10;;;6.18;;
54241;SDS011;40156;51.080;17.082;2022-11-11T14:25:45;15.20;;;6.90;;
54241;SDS011;40156;51.080;17.082;2022-11-11T14:28:20;14.07;;;6.47;;
54241;SDS011;40156;51.080;17.082;2022-11-11T14:30:48;12.93;;;6.82;;
54241;SDS011;40156;51.080;17.082;2022-11-11T14:35:51;11.13;;;6.10;;
54241;SDS011;40156;51.080;17.082;2022-11-11T14:38:31;10.98;;;5.93;;
54241;SDS011;40156;51.080;17.082;2022-11-11T14:43:50;12.60;;;7.03;;
54241;SDS011;40156;51.080;17.082;2022-11-11T14:46:18;17.02;;;6.82;;
54241;SDS011;40156;51.080;17.082;2022-11-11T14:48:55;14.88;;;6.78;;
54241;SDS011;40156;51.080;17.082;2022-11-11T14:51:40;14.48;;;6.95;;
54241;SDS011;40156;51.080;17.082;2022-11-11T14:54:23;13.82;;;7.53;;
54241;SDS011;40156;51.080;17.082;2022-11-11T14:56:56;12.27;;;6.65;;
54241;SDS011;40156;51.080;17.082;2022-11-11T14:59:29;20.25;;;7.95;;
54241;SDS011;40156;51.080;17.082;2022-11-11T15:01:59;15.93;;;7.90;;
54241;SDS011;40156;51.080;17.082;2022-11-11T15:04:36;19.15;;;9.23;;
54241;SDS011;40156;51.080;17.082;2022-11-11T15:07:03;26.08;;;10.00;;
54241;SDS011;40156;51.080;17.082;2022-11-11T15:12:02;26.55;;;10.10;;
54241;SDS011;40156;51.080;17.082;2022-11-11T15:28:30;20.33;;;8.98;;
54241;SDS011;40156;51.080;17.082;2022-11-11T15:30:42;19.63;;;9.02;;
54241;SDS011;40156;51.080;17.082;2022-11-11T15:33:16;21.48;;;9.48;;
54241;SDS011;40156;51.080;17.082;2022-11-11T15:35:56;25.15;;;10.55;;
54241;SDS011;40156;51.080;17.082;2022-11-11T15:38:24;33.53;;;12.70;;
54241;SDS011;40156;51.080;17.082;2022-11-11T15:40:53;33.65;;;13.15;;
54241;SDS011;40156;51.080;17.082;2022-11-11T15:43:27;33.83;;;12.95;;
54241;SDS011;40156;51.080;17.082;2022-11-11T15:45:57;30.77;;;13.05;;
54241;SDS011;40156;51.080;17.082;2022-11-11T15:48:43;32.45;;;12.95;;
54241;SDS011;40156;51.080;17.082;2022-11-11T15:51:14;25.25;;;11.05;;
54241;SDS011;40156;51.080;17.082;2022-11-11T15:53:42;20.83;;;9.82;;
54241;SDS011;40156;51.080;17.082;2022-11-11T15:56:09;22.42;;;9.13;;
54241;SDS011;40156;51.080;17.082;2022-11-11T15:58:37;16.42;;;8.18;;
54241;SDS011;40156;51.080;17.082;2022-11-11T16:01:06;18.63;;;9.35;;
54241;SDS011;40156;51.080;17.082;2022-11-11T16:03:40;15.52;;;7.22;;
54241;SDS011;40156;51.080;17.082;2022-11-11T16:06:11;17.33;;;7.82;;
54241;SDS011;40156;51.080;17.082;2022-11-11T16:08:40;17.70;;;8.77;;
54241;SDS011;40156;51.080;17.082;2022-11-11T16:11:08;17.23;;;8.00;;
54241;SDS011;40156;51.080;17.082;2022-11-11T16:13:38;30.50;;;10.43;;
54241;SDS011;40156;51.080;17.082;2022-11-11T16:21:10;29.10;;;11.02;;
54241;SDS011;40156;51.080;17.082;2022-11-11T16:23:39;19.80;;;8.68;;
54241;SDS011;40156;51.080;17.082;2022-11-11T16:26:07;18.30;;;9.65;;
54241;SDS011;40156;51.080;17.082;2022-11-11T16:28:38;19.42;;;9.40;;
54241;SDS011;40156;51.080;17.082;2022-11-11T16:31:29;18.50;;;8.73;;
54241;SDS011;40156;51.080;17.082;2022-11-11T16:33:57;20.15;;;8.95;;
54241;SDS011;40156;51.080;17.082;2022-11-11T16:36:24;16.35;;;7.45;;
54241;SDS011;40156;51.080;17.082;2022-11-11T16:38:51;20.90;;;8.20;;
54241;SDS011;40156;51.080;17.082;2022-11-11T16:43:53;15.57;;;7.65;;
54241;SDS011;40156;51.080;17.082;2022-11-11T16:51:47;15.25;;;7.60;;
54241;SDS011;40156;51.080;17.082;2022-11-11T16:54:21;14.95;;;7.25;;
54241;SDS011;40156;51.080;17.082;2022-11-11T16:56:51;16.95;;;8.20;;
54241;SDS011;40156;51.080;17.082;2022-11-11T17:02:20;15.50;;;7.43;;
54241;SDS011;40156;51.080;17.082;2022-11-11T17:04:49;15.82;;;7.50;;
54241;SDS011;40156;51.080;17.082;2022-11-11T17:07:31;13.30;;;7.05;;
54241;SDS011;40156;51.080;17.082;2022-11-11T17:12:35;12.43;;;6.57;;
54241;SDS011;40156;51.080;17.082;2022-11-11T17:18:24;15.95;;;7.07;;
54241;SDS011;40156;51.080;17.082;2022-11-11T17:21:11;16.95;;;7.43;;
54241;SDS011;40156;51.080;17.082;2022-11-11T17:23:39;12.48;;;6.57;;
54241;SDS011;40156;51.080;17.082;2022-11-11T17:26:07;17.33;;;6.93;;
54241;SDS011;40156;51.080;17.082;2022-11-11T17:28:35;14.32;;;6.32;;
54241;SDS011;40156;51.080;17.082;2022-11-11T17:31:07;12.50;;;6.10;;
54241;SDS011;40156;51.080;17.082;2022-11-11T17:33:34;14.47;;;7.13;;
54241;SDS011;40156;51.080;17.082;2022-11-11T17:39:24;11.63;;;6.30;;
54241;SDS011;40156;51.080;17.082;2022-11-11T17:41:55;13.95;;;6.20;;
54241;SDS011;40156;51.080;17.082;2022-11-11T17:44:22;13.40;;;5.85;;
54241;SDS011;40156;51.080;17.082;2022-11-11T17:46:50;13.23;;;6.00;;
54241;SDS011;40156;51.080;17.082;2022-11-11T17:49:20;12.32;;;6.22;;
54241;SDS011;40156;51.080;17.082;2022-11-11T17:52:07;13.88;;;6.20;;
54241;SDS011;40156;51.080;17.082;2022-11-11T17:58:08;14.75;;;6.88;;
54241;SDS011;40156;51.080;17.082;2022-11-11T18:00:40;23.63;;;7.28;;
54241;SDS011;40156;51.080;17.082;2022-11-11T18:03:07;14.43;;;6.90;;
54241;SDS011;40156;51.080;17.082;2022-11-11T18:05:35;16.35;;;7.05;;
54241;SDS011;40156;51.080;17.082;2022-11-11T18:08:02;16.50;;;7.30;;